Time;durP1;ratioP1;P1;durP2;ratioP2;P2;SDS_P1;SDS_P2;PMS_P1;PMS_P2;Temp;Humidity;BMP_temperature;BMP_pressure;BME280_temperature;BME280_humidity;BME280_pressure;Samples;Min_cycle;Max_cycle;Signal;HPM_P1;HPM_P2
2023/07/01 00:00:58;;;;;;;4.10;2.80;;;18.10;1.00;;;;;;5137746;27;20183;-49
2023/07/01 00:03:24;;;;;;;4.20;3.80;;;18.10;92.90;;;;;;5137074;27;20432;-49
2023/07/01 00:05:50;;;;;;;3.83;3.30;;;18.10;1.00;;;;;;5139879;27;20431;-48
2023/07/01 00:08:17;;;;;;;3.73;3.43;;;17.90;93.60;;;;;;5139840;27;20207;-48
2023/07/01 00:10:42;;;;;;;4.03;3.20;;;17.90;99.90;;;;;;5118239;27;20918;-48
2023/07/01 00:13:08;;;;;;;9.37;3.20;;;17.90;99.90;;;;;;5136719;27;20409;-49
2023/07/01 00:15:34;;;;;;;4.30;2.83;;;17.90;99.90;;;;;;5136869;27;20160;-48
2023/07/01 00:18:00;;;;;;;3.10;2.80;;;17.90;99.90;;;;;;5135925;27;20594;-48
2023/07/01 00:20:26;;;;;;;5.00;2.87;;;17.90;1.00;;;;;;5136481;27;20178;-49
2023/07/01 00:22:53;;;;;;;3.27;2.40;;;17.90;99.90;;;;;;5135651;27;20513;-47
2023/07/01 00:25:19;;;;;;;3.63;2.80;;;17.90;99.90;;;;;;5136365;27;20796;-49
2023/07/01 00:27:44;;;;;;;3.67;3.27;;;17.90;1.00;;;;;;5137142;27;20588;-47
2023/07/01 00:30:11;;;;;;;3.80;2.80;;;18.00;1.00;;;;;;5136794;27;20417;-47
2023/07/01 00:32:36;;;;;;;3.77;3.47;;;17.90;1.00;;;;;;5118798;27;20175;-48
2023/07/01 00:35:02;;;;;;;3.53;3.23;;;17.90;1.00;;;;;;5137750;27;20429;-50
2023/07/01 00:37:28;;;;;;;3.40;3.10;;;17.90;1.00;;;;;;5137182;27;20187;-49
2023/07/01 00:39:53;;;;;;;3.60;2.87;;;17.90;1.00;;;;;;5135850;27;20194;-48
2023/07/01 00:42:19;;;;;;;4.20;3.53;;;18.00;1.00;;;;;;5137011;27;20190;-50
2023/07/01 00:44:44;;;;;;;2.80;2.60;;;18.10;1.00;;;;;;5137739;27;20221;-52
2023/07/01 00:47:10;;;;;;;4.73;3.27;;;18.00;99.90;;;;;;5137021;27;20210;-48
2023/07/01 00:49:37;;;;;;;3.30;3.00;;;18.00;90.50;;;;;;5136824;27;20541;-52
2023/07/01 00:52:04;;;;;;;3.50;2.63;;;17.90;99.90;;;;;;5136707;27;20841;-51
2023/07/01 00:54:30;;;;;;;3.10;2.80;;;17.80;99.90;;;;;;5136141;27;20429;-51
2023/07/01 00:56:55;;;;;;;5.70;3.30;;;17.80;1.00;;;;;;5135522;27;20512;-47
2023/07/01 00:59:21;;;;;;;4.27;3.20;;;17.90;99.90;;;;;;5136609;27;20207;-48
2023/07/01 01:01:50;;;;;;;4.03;3.63;;;17.90;99.90;;;;;;5136541;27;20182;-48
2023/07/01 01:04:22;;;;;;;4.53;3.50;;;17.90;99.90;;;;;;5118017;27;20166;-50
2023/07/01 01:07:00;;;;;;;3.60;3.30;;;17.90;99.90;;;;;;5136764;27;21041;-50
2023/07/01 01:09:41;;;;;;;3.77;2.93;;;17.80;99.90;;;;;;5118026;27;20693;-49
2023/07/01 01:12:10;;;;;;;6.83;3.70;;;17.80;99.90;;;;;;5136394;27;20682;-49
2023/07/01 01:14:37;;;;;;;3.37;3.07;;;17.80;99.90;;;;;;5117384;27;20456;-53
2023/07/01 01:17:05;;;;;;;3.30;3.00;;;17.60;1.00;;;;;;5118022;27;20823;-50
2023/07/01 01:19:40;;;;;;;4.93;3.33;;;17.60;99.90;;;;;;5137083;27;20515;-49
2023/07/01 01:22:24;;;;;;;3.40;3.10;;;17.60;1.00;;;;;;5118441;27;20418;-48
2023/07/01 01:24:54;;;;;;;3.40;3.10;;;17.50;99.90;;;;;;5117772;27;20586;-49
2023/07/01 01:27:24;;;;;;;4.33;3.40;;;17.50;99.90;;;;;;5136044;27;20525;-47
2023/07/01 01:29:50;;;;;;;4.07;3.67;;;17.50;99.90;;;;;;5118209;27;20421;-49
2023/07/01 01:32:15;;;;;;;3.77;3.23;;;17.40;99.90;;;;;;5136481;27;20467;-49
2023/07/01 01:34:41;;;;;;;4.20;3.50;;;17.40;1.00;;;;;;5136992;27;20412;-52
2023/07/01 01:37:13;;;;;;;4.47;4.07;;;17.30;1.00;;;;;;5116950;27;20290;-49
2023/07/01 01:39:43;;;;;;;4.17;3.40;;;17.30;99.90;;;;;;5119025;27;20436;-50
2023/07/01 01:42:17;;;;;;;3.30;3.00;;;17.30;99.90;;;;;;5118180;27;20432;-51
2023/07/01 01:44:47;;;;;;;4.23;3.30;;;17.20;99.90;;;;;;5135090;27;20431;-47
2023/07/01 01:47:16;;;;;;;3.67;3.30;;;17.30;99.90;;;;;;5117659;27;20468;-51
2023/07/01 01:49:43;;;;;;;3.70;3.30;;;17.30;99.90;;;;;;5135672;27;20463;-49
2023/07/01 01:52:12;;;;;;;4.30;3.90;;;17.30;1.00;;;;;;5117933;27;20523;-49
2023/07/01 01:54:38;;;;;;;4.87;3.17;;;17.40;26.60;;;;;;5117126;27;20511;-48
2023/07/01 01:57:04;;;;;;;3.90;3.53;;;17.40;97.30;;;;;;5134564;27;21022;-49
2023/07/01 01:59:30;;;;;;;3.83;3.53;;;17.40;1.00;;;;;;5117412;27;20195;-49
2023/07/01 02:01:56;;;;;;;4.23;3.83;;;17.40;1.00;;;;;;5117882;27;20553;-51
2023/07/01 02:04:21;;;;;;;3.60;3.30;;;17.40;1.00;;;;;;5136563;27;20517;-50
2023/07/01 02:06:47;;;;;;;4.17;3.77;;;17.50;1.00;;;;;;5136015;27;20186;-46
2023/07/01 02:09:12;;;;;;;4.17;3.77;;;17.50;1.00;;;;;;5135528;27;20545;-48
2023/07/01 02:11:38;;;;;;;4.03;3.50;;;17.50;99.90;;;;;;5136900;28;20193;-51
2023/07/01 02:14:03;;;;;;;3.87;3.10;;;17.40;1.00;;;;;;5136894;28;20202;-50
2023/07/01 02:16:29;;;;;;;6.17;3.53;;;17.50;1.00;;;;;;5134025;28;20163;-46
2023/07/01 02:18:55;;;;;;;3.07;2.77;;;17.50;1.00;;;;;;5134285;28;20379;-50
2023/07/01 02:21:20;;;;;;;3.63;3.33;;;17.50;1.00;;;;;;5134455;28;20223;-50
2023/07/01 02:23:46;;;;;;;3.60;3.20;;;17.50;1.00;;;;;;5133582;27;20174;-48
2023/07/01 02:26:11;;;;;;;3.33;3.03;;;17.60;99.90;;;;;;5134717;28;20183;-50
2023/07/01 02:28:37;;;;;;;4.67;3.53;;;17.50;99.90;;;;;;5134518;28;20679;-51
2023/07/01 02:31:03;;;;;;;3.67;3.37;;;17.50;99.90;;;;;;5135270;28;20260;-48
2023/07/01 02:33:28;;;;;;;3.80;3.23;;;17.40;99.90;;;;;;5136621;28;20262;-50
2023/07/01 02:35:54;;;;;;;3.30;3.00;;;17.40;99.90;;;;;;5136165;28;20262;-49
2023/07/01 02:38:19;;;;;;;3.60;3.00;;;17.50;99.90;;;;;;5136277;28;20175;-50
2023/07/01 02:40:45;;;;;;;5.13;3.20;;;17.50;99.90;;;;;;5136190;28;20492;-50
2023/07/01 02:43:11;;;;;;;4.73;3.30;;;17.60;99.90;;;;;;5135884;28;20190;-50
2023/07/01 02:45:36;;;;;;;4.20;3.50;;;17.60;1.00;;;;;;5136006;27;20183;-48
2023/07/01 02:48:02;;;;;;;3.53;3.23;;;17.60;1.00;;;;;;5139419;27;20545;-50
2023/07/01 02:50:29;;;;;;;4.07;3.73;;;17.60;1.00;;;;;;5139934;27;20615;-48
2023/07/01 02:52:54;;;;;;;3.57;2.90;;;17.60;1.00;;;;;;5139859;27;20197;-49
2023/07/01 02:55:20;;;;;;;4.17;3.77;;;17.60;1.00;;;;;;5138885;27;20551;-58
2023/07/01 02:57:45;;;;;;;6.90;3.63;;;17.60;1.00;;;;;;5137428;27;20187;-48
2023/07/01 03:00:13;;;;;;;3.23;2.93;;;17.60;1.00;;;;;;5137957;27;20481;-49
2023/07/01 03:02:39;;;;;;;4.40;3.53;;;17.50;1.00;;;;;;5138040;27;20200;-48
2023/07/01 03:05:06;;;;;;;3.20;2.87;;;17.60;1.00;;;;;;5136706;27;20850;-50
2023/07/01 03:07:32;;;;;;;4.10;3.70;;;17.60;1.00;;;;;;5137779;27;20205;-48
2023/07/01 03:09:58;;;;;;;5.27;3.53;;;17.60;1.00;;;;;;5138872;27;20435;-51
2023/07/01 03:12:23;;;;;;;3.70;3.40;;;17.50;1.00;;;;;;5140068;27;20420;-46
2023/07/01 03:14:49;;;;;;;5.47;3.60;;;17.40;1.00;;;;;;5140536;27;20270;-49
2023/07/01 03:17:14;;;;;;;4.10;3.33;;;17.30;1.00;;;;;;5140808;27;20480;-50
2023/07/01 03:19:41;;;;;;;6.10;3.10;;;17.20;76.80;;;;;;5122427;27;20183;-50
2023/07/01 03:22:07;;;;;;;3.90;3.50;;;17.10;99.90;;;;;;5138964;27;20167;-48
2023/07/01 03:24:33;;;;;;;5.20;4.00;;;17.10;1.00;;;;;;5139822;27;20734;-48
2023/07/01 03:27:01;;;;;;;4.10;3.40;;;17.10;99.90;;;;;;5139117;28;20231;-51
2023/07/01 03:29:27;;;;;;;4.00;3.60;;;17.00;1.00;;;;;;5137999;28;20428;-49
2023/07/01 03:31:53;;;;;;;5.33;3.77;;;16.90;1.00;;;;;;5137172;28;20409;-49
2023/07/01 03:34:22;;;;;;;3.50;3.20;;;16.80;99.90;;;;;;5137628;28;20560;-51
2023/07/01 03:36:48;;;;;;;3.97;3.40;;;16.80;99.90;;;;;;5138395;28;20239;-48
2023/07/01 03:39:13;;;;;;;4.57;4.17;;;16.90;99.90;;;;;;5137547;28;20456;-50
2023/07/01 03:41:39;;;;;;;5.10;4.17;;;16.90;5.00;;;;;;5137115;28;20479;-48
2023/07/01 03:44:04;;;;;;;6.50;4.30;;;17.00;1.00;;;;;;5137376;28;20563;-48
2023/07/01 03:46:30;;;;;;;5.70;5.20;;;16.90;99.90;;;;;;5136702;28;20167;-48
2023/07/01 03:48:56;;;;;;;4.10;3.77;;;16.80;3.00;;;;;;5137896;28;20221;-48
2023/07/01 03:51:21;;;;;;;4.23;3.80;;;16.70;99.90;;;;;;5137311;28;20186;-48
2023/07/01 03:53:47;;;;;;;4.40;4.00;;;16.60;1.00;;;;;;5133936;28;20676;-47
2023/07/01 03:56:13;;;;;;;4.17;3.77;;;16.60;1.00;;;;;;5116922;28;20478;-49
2023/07/01 03:58:38;;;;;;;5.53;4.30;;;16.70;1.00;;;;;;5116036;28;20194;-50
2023/07/01 04:01:05;;;;;;;4.67;4.00;;;16.80;1.00;;;;;;5116799;28;20449;-53
2023/07/01 04:03:33;;;;;;;6.23;3.97;;;16.90;99.90;;;;;;5097545;28;20616;-52
2023/07/01 04:05:58;;;;;;;4.40;4.00;;;16.90;99.90;;;;;;5115681;28;20524;-54
2023/07/01 04:08:24;;;;;;;3.70;3.30;;;17.00;99.90;;;;;;5115514;28;20641;-53
2023/07/01 04:10:50;;;;;;;4.47;3.87;;;17.10;20.30;;;;;;5117841;28;20256;-49
2023/07/01 04:13:15;;;;;;;4.10;3.70;;;17.20;1.00;;;;;;5114725;28;20172;-50
2023/07/01 04:15:41;;;;;;;6.03;3.57;;;17.20;99.90;;;;;;5114959;28;20176;-50
2023/07/01 04:18:06;;;;;;;3.43;3.13;;;17.30;99.90;;;;;;5114725;28;20176;-52
2023/07/01 04:20:32;;;;;;;5.83;4.10;;;17.30;99.90;;;;;;5113955;28;20618;-50
2023/07/01 04:22:58;;;;;;;4.17;3.77;;;17.30;37.40;;;;;;5113226;28;20560;-51
2023/07/01 04:25:23;;;;;;;4.78;4.05;;;17.30;98.80;;;;;;5056402;28;1128123;-52
2023/07/01 04:27:49;;;;;;;5.93;4.40;;;17.30;1.00;;;;;;5114453;28;20600;-52
2023/07/01 04:30:15;;;;;;;4.40;3.87;;;17.30;99.90;;;;;;5115292;28;20179;-52
2023/07/01 04:32:41;;;;;;;3.80;3.40;;;17.20;99.90;;;;;;5115136;28;20172;-51
2023/07/01 04:35:06;;;;;;;3.80;3.50;;;17.30;99.90;;;;;;5116760;28;20263;-52
2023/07/01 04:37:32;;;;;;;4.57;3.40;;;17.30;99.90;;;;;;5118078;28;20457;-51
2023/07/01 04:39:58;;;;;;;4.73;4.20;;;17.40;99.90;;;;;;5117870;28;20543;-49
2023/07/01 04:42:23;;;;;;;4.27;3.60;;;17.40;10.10;;;;;;5117449;28;20184;-48
2023/07/01 04:44:53;;;;;;;5.03;4.50;;;17.50;1.00;;;;;;5117981;28;20243;-49
2023/07/01 04:47:25;;;;;;;6.73;4.63;;;17.60;1.00;;;;;;5116826;28;20214;-52
2023/07/01 04:49:52;;;;;;;5.20;3.70;;;17.60;1.00;;;;;;5114822;28;20830;-50
2023/07/01 04:52:21;;;;;;;6.97;4.77;;;17.60;1.00;;;;;;5114900;28;20424;-46
2023/07/01 04:54:47;;;;;;;4.30;3.90;;;17.50;1.00;;;;;;5115285;28;20409;-45
2023/07/01 04:57:13;;;;;;;4.73;4.33;;;17.30;99.90;;;;;;5116319;28;20460;-47
2023/07/01 04:59:39;;;;;;;4.47;4.10;;;17.20;99.90;;;;;;5116939;28;20422;-46
2023/07/01 05:02:05;;;;;;;4.77;3.73;;;17.10;1.00;;;;;;5115785;28;20183;-44
2023/07/01 05:04:30;;;;;;;7.70;4.60;;;17.00;1.00;;;;;;5118157;28;20186;-45
2023/07/01 05:06:56;;;;;;;4.80;4.40;;;16.90;76.90;;;;;;5116153;28;20268;-46
2023/07/01 05:09:21;;;;;;;7.30;4.97;;;16.90;97.10;;;;;;5115567;28;20180;-43
2023/07/01 05:11:47;;;;;;;6.70;4.53;;;16.90;32.40;;;;;;5113476;28;20183;-47
2023/07/01 05:14:13;;;;;;;5.07;4.13;;;16.90;97.20;;;;;;5115065;27;20527;-47
2023/07/01 05:16:39;;;;;;;4.93;4.47;;;16.90;1.00;;;;;;5115886;27;20497;-47
2023/07/01 05:19:06;;;;;;;4.87;4.47;;;16.90;99.90;;;;;;5134637;27;20217;-49
2023/07/01 05:21:33;;;;;;;5.20;4.70;;;16.90;19.40;;;;;;5114119;28;20278;-48
2023/07/01 05:23:59;;;;;;;5.50;4.73;;;17.00;1.00;;;;;;5113389;28;20877;-47
2023/07/01 05:26:25;;;;;;;5.40;4.90;;;17.00;1.00;;;;;;5075364;28;20447;-48
2023/07/01 05:28:51;;;;;;;6.33;4.43;;;17.00;1.00;;;;;;5077327;28;20219;-47
2023/07/01 05:31:16;;;;;;;4.77;4.37;;;17.00;1.00;;;;;;5098089;28;20415;-49
2023/07/01 05:33:45;;;;;;;5.70;4.30;;;17.10;1.00;;;;;;5077911;28;20172;-49
2023/07/01 05:36:11;;;;;;;5.90;4.90;;;17.10;1.00;;;;;;5097724;28;20529;-46
2023/07/01 05:38:40;;;;;;;6.67;4.70;;;17.10;1.00;;;;;;5096923;28;20716;-47
2023/07/01 05:41:06;;;;;;;4.90;4.50;;;17.20;1.00;;;;;;5098386;28;20436;-49
2023/07/01 05:43:31;;;;;;;4.83;4.33;;;17.30;1.00;;;;;;5096648;28;20723;-46
2023/07/01 05:45:57;;;;;;;5.03;4.00;;;17.30;99.90;;;;;;5095770;28;20499;-46
2023/07/01 05:48:23;;;;;;;4.70;4.30;;;17.40;99.90;;;;;;5096580;28;20310;-46
2023/07/01 05:50:49;;;;;;;6.63;4.30;;;17.50;99.90;;;;;;5097422;28;20269;-48
2023/07/01 05:53:14;;;;;;;4.20;3.90;;;17.60;1.00;;;;;;5075245;28;20257;-47
2023/07/01 05:55:40;;;;;;;4.47;3.80;;;17.70;1.00;;;;;;5076559;28;20169;-49
2023/07/01 05:58:06;;;;;;;5.37;4.07;;;17.70;99.90;;;;;;5097567;28;20176;-51
2023/07/01 06:00:31;;;;;;;4.00;3.70;;;17.90;99.90;;;;;;5096610;28;20249;-48
2023/07/01 06:02:57;;;;;;;4.77;4.37;;;18.00;1.00;;;;;;5097186;28;20192;-47
2023/07/01 06:05:23;;;;;;;4.37;3.90;;;18.00;99.90;;;;;;5095505;28;20206;-47
2023/07/01 06:08:07;;;;;;;5.30;4.10;;;18.20;99.90;;;;;;5094347;28;20210;-47
2023/07/01 06:10:56;;;;;;;4.77;4.17;;;18.30;78.80;;;;;;5103305;28;20521;-47
2023/07/01 06:13:52;;;;;;;4.30;3.83;;;18.30;1.00;;;;;;5095357;28;20446;-49
2023/07/01 06:16:17;;;;;;;4.90;3.97;;;18.30;99.90;;;;;;5094638;28;20410;-47
2023/07/01 06:18:43;;;;;;;5.07;4.10;;;18.40;83.60;;;;;;5093940;28;20448;-48
2023/07/01 06:21:09;;;;;;;4.00;3.70;;;18.30;12.90;;;;;;5072625;28;20524;-46
2023/07/01 06:23:37;;;;;;;3.57;3.27;;;18.40;1.00;;;;;;5094989;28;20180;-51
2023/07/01 06:26:06;;;;;;;3.90;3.47;;;18.50;99.90;;;;;;5096833;28;20224;-48
2023/07/01 06:28:31;;;;;;;4.50;3.70;;;18.50;99.90;;;;;;5098510;28;20462;-48
2023/07/01 06:30:57;;;;;;;4.07;3.77;;;18.60;6.40;;;;;;5099052;28;20507;-48
2023/07/01 06:33:23;;;;;;;4.13;3.10;;;18.70;1.00;;;;;;5075525;28;20185;-48
2023/07/01 06:35:49;;;;;;;4.23;3.63;;;18.80;1.00;;;;;;5095845;28;20214;-50
2023/07/01 06:38:14;;;;;;;4.33;3.43;;;18.90;99.90;;;;;;5115524;28;20616;-48
2023/07/01 06:40:40;;;;;;;6.30;5.70;;;18.90;99.90;;;;;;5118312;28;20421;-48
2023/07/01 06:43:06;;;;;;;5.77;4.17;;;19.00;99.90;;;;;;5117218;28;20195;-47
2023/07/01 06:45:32;;;;;;;4.30;3.13;;;18.90;99.90;;;;;;5119092;28;20507;-48
2023/07/01 06:47:58;;;;;;;4.10;3.70;;;19.00;99.90;;;;;;5118469;28;20223;-48
2023/07/01 06:50:24;;;;;;;4.83;3.43;;;19.10;99.90;;;;;;5118341;28;20699;-50
2023/07/01 06:52:50;;;;;;;6.30;3.33;;;19.10;99.90;;;;;;5118007;28;20409;-48
2023/07/01 06:55:15;;;;;;;4.90;3.93;;;19.10;99.90;;;;;;5117867;28;20168;-47
2023/07/01 06:57:44;;;;;;;8.10;3.80;;;19.10;99.90;;;;;;5117935;28;20238;-49
2023/07/01 07:00:13;;;;;;;4.97;3.80;;;19.20;99.90;;;;;;5117809;28;20190;-51
2023/07/01 07:02:39;;;;;;;3.47;3.00;;;19.20;99.90;;;;;;5116030;28;20432;-50
2023/07/01 07:05:06;;;;;;;3.57;3.27;;;19.30;99.90;;;;;;5118579;28;20429;-48
2023/07/01 07:07:32;;;;;;;3.87;3.40;;;19.30;99.90;;;;;;5118303;28;20472;-48
2023/07/01 07:09:58;;;;;;;4.43;3.80;;;19.50;97.60;;;;;;5118024;28;20425;-48
2023/07/01 07:12:25;;;;;;;5.10;3.60;;;19.70;58.60;;;;;;5096386;28;20410;-48
2023/07/01 07:14:50;;;;;;;3.80;2.93;;;19.70;28.80;;;;;;5116580;28;20425;-50
2023/07/01 07:17:16;;;;;;;3.33;3.03;;;19.90;34.10;;;;;;5116042;28;20441;-48
2023/07/01 07:19:42;;;;;;;8.10;2.90;;;20.10;19.00;;;;;;5118818;28;20187;-51
2023/07/01 07:22:07;;;;;;;4.50;3.57;;;20.00;21.50;;;;;;5118211;28;20203;-49
2023/07/01 07:24:33;;;;;;;3.80;3.50;;;20.20;22.70;;;;;;5117794;28;20276;-49
2023/07/01 07:27:00;;;;;;;3.53;3.23;;;20.40;4.00;;;;;;5116372;28;20542;-48
2023/07/01 07:29:30;;;;;;;3.53;3.23;;;20.60;1.00;;;;;;5116227;28;20427;-48
2023/07/01 07:31:57;;;;;;;6.97;3.87;;;20.60;1.00;;;;;;5117118;28;20424;-48
2023/07/01 07:34:23;;;;;;;4.57;3.33;;;20.60;1.00;;;;;;5115886;28;20463;-48
2023/07/01 07:36:49;;;;;;;4.37;3.50;;;20.70;1.00;;;;;;5096123;28;20499;-47
2023/07/01 07:39:15;;;;;;;3.60;3.30;;;20.80;1.00;;;;;;5117042;28;20744;-50
2023/07/01 07:41:41;;;;;;;5.13;3.47;;;20.90;1.00;;;;;;5096608;28;20459;-47
2023/07/01 07:44:07;;;;;;;4.37;3.27;;;20.80;1.00;;;;;;5094753;28;20645;-47
2023/07/01 07:46:36;;;;;;;5.77;3.60;;;20.80;1.00;;;;;;5114014;28;20432;-50
2023/07/01 07:49:02;;;;;;;3.50;2.60;;;20.70;1.00;;;;;;5116057;28;20461;-48
2023/07/01 07:51:28;;;;;;;4.10;3.30;;;20.80;1.00;;;;;;5093070;28;20524;-47
2023/07/01 07:53:54;;;;;;;4.23;3.50;;;20.90;1.00;;;;;;5114680;28;20505;-49
2023/07/01 07:56:20;;;;;;;4.33;3.30;;;21.20;1.00;;;;;;5095412;28;20180;-49
2023/07/01 07:58:45;;;;;;;4.10;2.80;;;21.40;1.00;;;;;;5113835;28;20474;-47
2023/07/01 08:01:11;;;;;;;3.53;3.23;;;21.40;1.00;;;;;;5114910;28;20194;-48
2023/07/01 08:03:37;;;;;;;5.63;3.87;;;21.30;1.00;;;;;;5114802;28;20267;-49
2023/07/01 08:06:02;;;;;;;6.23;3.47;;;21.20;1.00;;;;;;5113871;28;20952;-48
2023/07/01 08:08:28;;;;;;;4.70;4.27;;;21.10;1.00;;;;;;5114496;28;20332;-49
2023/07/01 08:10:54;;;;;;;4.83;3.90;;;21.10;1.00;;;;;;5114068;28;20188;-50
2023/07/01 08:13:19;;;;;;;5.67;3.30;;;21.30;1.00;;;;;;5115843;28;20286;-49
2023/07/01 08:15:45;;;;;;;4.07;3.67;;;21.50;1.00;;;;;;5115498;28;20339;-48
2023/07/01 08:18:11;;;;;;;4.90;4.27;;;21.50;1.00;;;;;;5115323;28;20203;-48
2023/07/01 08:20:38;;;;;;;7.53;3.70;;;21.20;1.00;;;;;;5112114;28;20596;-48
2023/07/01 08:23:04;;;;;;;4.00;3.50;;;21.10;1.00;;;;;;5113302;28;20506;-49
2023/07/01 08:25:30;;;;;;;5.27;3.37;;;20.90;1.00;;;;;;5113039;28;20453;-48
2023/07/01 08:27:55;;;;;;;3.40;3.10;;;21.00;1.00;;;;;;5114349;28;20507;-48
2023/07/01 08:30:22;;;;;;;3.17;2.70;;;21.10;1.00;;;;;;5114576;28;20265;-48
2023/07/01 08:32:48;;;;;;;4.77;2.93;;;21.10;1.00;;;;;;5114683;28;20273;-48
2023/07/01 08:35:13;;;;;;;3.53;2.93;;;21.30;1.00;;;;;;5115167;28;20719;-47
2023/07/01 08:37:39;;;;;;;4.50;2.90;;;21.40;1.00;;;;;;5113695;28;20422;-49
2023/07/01 08:40:07;;;;;;;3.43;2.90;;;21.60;1.00;;;;;;5113144;28;20176;-47
2023/07/01 08:43:01;;;;;;;2.80;2.50;;;21.80;1.00;;;;;;5114750;28;20245;-48
2023/07/01 08:45:27;;;;;;;4.37;3.93;;;21.90;1.00;;;;;;5114408;28;20430;-50
2023/07/01 08:47:53;;;;;;;2.90;2.33;;;22.00;1.00;;;;;;5095747;28;20465;-47
2023/07/01 08:50:20;;;;;;;3.90;2.87;;;22.10;1.00;;;;;;5093056;28;20816;-46
2023/07/01 08:52:47;;;;;;;2.63;2.30;;;22.40;1.00;;;;;;5112072;28;20543;-47
2023/07/01 08:55:13;;;;;;;5.40;3.10;;;22.50;1.00;;;;;;5113538;28;20682;-50
2023/07/01 08:57:39;;;;;;;3.17;2.30;;;22.50;1.00;;;;;;5090636;28;20807;-49
2023/07/01 09:00:06;;;;;;;4.50;2.80;;;22.20;1.00;;;;;;5113068;28;20426;-55
2023/07/01 09:02:32;;;;;;;3.70;2.50;;;21.90;1.00;;;;;;5115328;28;20421;-49
2023/07/01 09:05:00;;;;;;;2.33;2.13;;;22.00;1.00;;;;;;5116664;28;20728;-55
2023/07/01 09:07:32;;;;;;;4.17;2.70;;;22.30;1.00;;;;;;5096980;28;20472;-51
2023/07/01 09:10:00;;;;;;;2.93;2.67;;;22.10;1.00;;;;;;5097655;28;20723;-46
2023/07/01 09:12:29;;;;;;;3.93;3.00;;;22.10;1.00;;;;;;5115409;28;20436;-46
2023/07/01 09:15:02;;;;;;;3.30;2.27;;;22.10;1.00;;;;;;5115565;28;20429;-45
2023/07/01 09:17:33;;;;;;;2.80;2.10;;;22.00;1.00;;;;;;5116275;28;20425;-47
2023/07/01 09:20:07;;;;;;;3.50;2.50;;;22.20;1.00;;;;;;5116883;28;20664;-50
2023/07/01 09:22:34;;;;;;;2.80;2.27;;;22.40;1.00;;;;;;5096325;28;20702;-49
2023/07/01 09:25:00;;;;;;;3.20;2.90;;;22.60;1.00;;;;;;5115190;28;20461;-48
2023/07/01 09:27:48;;;;;;;4.03;2.37;;;22.90;1.00;;;;;;5113428;28;21047;-50
2023/07/01 09:30:20;;;;;;;5.30;2.23;;;23.30;1.00;;;;;;5116532;28;20876;-46
2023/07/01 09:32:46;;;;;;;3.70;2.20;;;23.40;1.00;;;;;;5115394;28;20765;-47
2023/07/01 09:35:12;;;;;;;4.50;2.80;;;22.90;1.00;;;;;;5114190;28;20722;-51
2023/07/01 09:37:38;;;;;;;3.93;2.43;;;22.90;1.00;;;;;;5090587;28;20427;-49
2023/07/01 09:40:22;;;;;;;2.70;2.50;;;22.70;1.00;;;;;;5114164;28;20175;-47
2023/07/01 09:42:51;;;;;;;3.80;2.30;;;22.70;1.00;;;;;;5113044;28;20516;-50
2023/07/01 09:45:17;;;;;;;3.03;2.37;;;22.80;1.00;;;;;;5114137;28;20497;-52
2023/07/01 09:47:43;;;;;;;2.33;1.90;;;22.90;1.00;;;;;;5114283;28;20791;-48
2023/07/01 09:50:23;;;;;;;3.37;2.23;;;22.90;1.00;;;;;;5114349;28;20189;-51
2023/07/01 09:52:51;;;;;;;3.00;2.07;;;22.70;1.00;;;;;;5113923;28;20163;-48
2023/07/01 09:55:17;;;;;;;3.57;2.53;;;22.50;1.00;;;;;;5113667;28;20733;-47
2023/07/01 09:57:42;;;;;;;5.20;2.20;;;22.40;1.00;;;;;;5112125;28;20467;-47
2023/07/01 10:00:17;;;;;;;2.90;2.10;;;22.40;1.00;;;;;;5089931;28;20446;-48
2023/07/01 10:02:47;;;;;;;2.70;2.40;;;22.60;1.00;;;;;;5111929;28;20206;-47
2023/07/01 10:05:13;;;;;;;2.67;2.47;;;22.70;1.00;;;;;;5092477;28;20900;-50
2023/07/01 10:07:43;;;;;;;5.60;2.40;;;22.60;1.00;;;;;;5092542;28;20964;-47
2023/07/01 10:10:17;;;;;;;2.63;2.03;;;22.50;1.00;;;;;;5095284;28;20533;-47
2023/07/01 10:12:44;;;;;;;2.83;2.30;;;22.20;1.00;;;;;;5094339;28;20434;-52
2023/07/01 10:15:12;;;;;;;2.50;2.23;;;22.40;1.00;;;;;;5113556;28;20758;-49
2023/07/01 10:17:49;;;;;;;2.53;2.10;;;22.60;1.00;;;;;;5093041;28;20410;-49
2023/07/01 10:20:28;;;;;;;6.13;3.33;;;23.10;1.00;;;;;;5114390;28;20409;-49
2023/07/01 10:22:55;;;;;;;3.00;2.70;;;23.50;1.00;;;;;;5095119;28;20445;-48
2023/07/01 10:25:37;;;;;;;4.97;2.50;;;23.60;1.00;;;;;;5112978;28;21023;-50
2023/07/01 10:28:02;;;;;;;3.23;2.30;;;23.80;1.00;;;;;;5092019;28;20542;-48
2023/07/01 10:30:43;;;;;;;2.67;2.37;;;23.80;1.00;;;;;;5110492;28;20430;-49
2023/07/01 10:33:27;;;;;;;4.20;3.20;;;24.00;1.00;;;;;;5093456;28;20181;-49
2023/07/01 10:36:06;;;;;;;3.37;3.03;;;24.30;1.00;;;;;;5113651;28;21033;-49
2023/07/01 10:38:33;;;;;;;4.50;4.10;;;24.10;1.00;;;;;;5112982;28;20761;-49
2023/07/01 10:40:59;;;;;;;4.60;2.93;;;23.80;1.00;;;;;;5112932;28;20426;-49
2023/07/01 10:43:27;;;;;;;6.60;3.77;;;23.60;1.00;;;;;;5086989;28;20473;-48
2023/07/01 10:46:10;;;;;;;4.40;3.60;;;23.50;1.00;;;;;;5109770;28;20433;-48
2023/07/01 10:49:02;;;;;;;4.40;4.00;;;23.20;1.00;;;;;;5073288;28;20547;-49
2023/07/01 10:51:31;;;;;;;3.93;3.53;;;23.10;1.00;;;;;;5102154;28;20858;-49
2023/07/01 10:53:58;;;;;;;6.17;3.70;;;23.10;1.00;;;;;;5115265;28;20421;-50
2023/07/01 10:56:24;;;;;;;5.00;3.60;;;23.00;1.00;;;;;;5116070;28;20813;-47
2023/07/01 10:59:21;;;;;;;5.10;4.60;;;23.00;1.00;;;;;;5112602;28;20421;-47
2023/07/01 11:01:57;;;;;;;3.27;2.97;;;23.10;1.00;;;;;;5112973;28;20512;-49
2023/07/01 11:04:51;;;;;;;4.13;3.60;;;23.10;1.00;;;;;;5114425;28;20775;-47
2023/07/01 11:07:24;;;;;;;4.00;3.40;;;23.10;1.00;;;;;;5115771;28;20425;-49
2023/07/01 11:09:50;;;;;;;4.37;3.83;;;23.30;1.00;;;;;;5080308;28;20431;-49
2023/07/01 11:12:16;;;;;;;8.17;4.53;;;23.40;1.00;;;;;;5117148;28;20943;-49
2023/07/01 11:14:41;;;;;;;4.87;3.67;;;23.80;1.00;;;;;;5115163;28;20492;-48
2023/07/01 11:17:18;;;;;;;4.73;4.17;;;24.10;1.00;;;;;;5113583;28;20557;-49
2023/07/01 11:19:45;;;;;;;4.50;3.53;;;24.10;1.00;;;;;;5118344;28;20167;-49
2023/07/01 11:22:12;;;;;;;5.13;3.40;;;23.80;1.00;;;;;;5115662;28;20483;-50
2023/07/01 11:24:38;;;;;;;4.10;3.70;;;23.80;1.00;;;;;;5115866;27;20469;-49
2023/07/01 11:27:07;;;;;;;6.17;3.97;;;23.80;1.00;;;;;;5093924;28;20754;-50
2023/07/01 11:29:36;;;;;;;6.40;3.70;;;24.10;1.00;;;;;;5095289;28;20643;-51
2023/07/01 11:32:04;;;;;;;4.10;3.37;;;24.10;1.00;;;;;;5095872;28;20503;-51
2023/07/01 11:34:30;;;;;;;5.70;4.10;;;23.70;1.00;;;;;;5096062;28;20665;-50
2023/07/01 11:36:57;;;;;;;5.07;3.50;;;23.60;1.00;;;;;;5098780;28;20426;-49
2023/07/01 11:39:23;;;;;;;4.50;3.40;;;23.70;1.00;;;;;;5117027;28;20429;-49
2023/07/01 11:41:52;;;;;;;4.10;3.33;;;23.40;1.00;;;;;;5116120;28;20409;-56
2023/07/01 11:44:21;;;;;;;3.87;3.17;;;23.20;1.00;;;;;;5115616;28;20497;-57
2023/07/01 11:46:46;;;;;;;4.23;2.93;;;23.10;1.00;;;;;;5117325;28;20429;-55
2023/07/01 11:49:21;;;;;;;3.47;3.17;;;22.90;1.00;;;;;;5094470;28;20802;-54
2023/07/01 11:51:51;;;;;;;3.47;3.17;;;22.90;1.00;;;;;;5115746;28;20175;-51
2023/07/01 11:54:22;;;;;;;6.07;4.20;;;22.60;1.00;;;;;;5095145;28;20430;-51
2023/07/01 11:56:48;;;;;;;5.80;3.20;;;22.30;1.00;;;;;;5096375;28;20423;-54
2023/07/01 11:59:31;;;;;;;7.00;3.53;;;22.30;1.00;;;;;;5117794;28;20755;-57
2023/07/01 12:01:58;;;;;;;3.03;2.70;;;22.20;1.00;;;;;;5118515;28;20921;-55
2023/07/01 12:04:24;;;;;;;4.93;3.10;;;22.20;1.00;;;;;;5094972;28;20438;-61
2023/07/01 12:06:50;;;;;;;8.80;4.10;;;22.00;1.00;;;;;;5116009;28;20876;-56
2023/07/01 12:09:28;;;;;;;4.00;3.20;;;22.00;1.00;;;;;;5116716;28;20282;-55
2023/07/01 12:11:54;;;;;;;6.10;4.10;;;21.90;1.00;;;;;;5096080;28;20427;-53
2023/07/01 12:14:22;;;;;;;3.57;2.87;;;21.90;1.00;;;;;;5114442;28;20812;-53
2023/07/01 12:16:49;;;;;;;6.30;2.67;;;21.90;1.00;;;;;;5115450;28;20433;-55
2023/07/01 12:19:16;;;;;;;2.77;2.10;;;21.80;1.00;;;;;;5113382;28;20429;-55
2023/07/01 12:21:43;;;;;;;2.50;2.30;;;21.80;1.00;;;;;;5095336;28;20473;-56
2023/07/01 12:24:29;;;;;;;2.77;1.97;;;21.90;1.00;;;;;;5116151;28;20720;-58
2023/07/01 12:26:57;;;;;;;3.57;2.50;;;22.00;1.00;;;;;;5116388;28;20425;-54
2023/07/01 12:29:23;;;;;;;3.00;2.70;;;22.10;1.00;;;;;;5113410;28;20525;-54
2023/07/01 12:31:49;;;;;;;3.87;2.17;;;22.20;1.00;;;;;;5093991;28;20832;-54
2023/07/01 12:34:15;;;;;;;4.20;3.00;;;22.30;1.00;;;;;;5113531;28;20761;-56
2023/07/01 12:36:43;;;;;;;3.87;2.20;;;22.40;1.00;;;;;;5109522;28;20172;-55
2023/07/01 12:39:09;;;;;;;2.70;2.37;;;22.00;1.00;;;;;;5109091;28;20501;-55
2023/07/01 12:41:35;;;;;;;3.43;2.13;;;21.90;1.00;;;;;;5087386;28;20506;-56
2023/07/01 12:44:04;;;;;;;2.47;1.87;;;21.90;1.00;;;;;;5075549;28;20924;-53
2023/07/01 12:46:30;;;;;;;3.33;2.00;;;21.90;1.00;;;;;;5112365;28;20862;-54
2023/07/01 12:48:56;;;;;;;2.40;2.07;;;21.80;1.00;;;;;;5110696;28;20473;-53
2023/07/01 12:51:21;;;;;;;2.60;1.90;;;21.80;1.00;;;;;;5109368;28;20428;-52
2023/07/01 12:53:47;;;;;;;3.37;2.30;;;21.90;1.00;;;;;;5111041;28;20454;-53
2023/07/01 12:56:13;;;;;;;8.30;2.50;;;21.80;1.00;;;;;;5113146;28;20160;-55